createdAt,value
2022-09-16T00:00:34.681Z,1.00
2022-09-16T00:03:02.376Z,1.17
2022-09-16T00:05:30.234Z,0.87
2022-09-16T00:07:59.164Z,0.80
2022-09-16T00:10:27.061Z,1.10
2022-09-16T00:12:54.600Z,1.07
2022-09-16T00:15:22.235Z,1.10
2022-09-16T00:17:49.766Z,1.13
2022-09-16T00:20:17.321Z,1.47
2022-09-16T00:22:45.132Z,1.00
2022-09-16T00:25:14.037Z,1.20
2022-09-16T00:27:41.944Z,1.10
2022-09-16T00:30:10.549Z,1.00
2022-09-16T00:32:38.114Z,1.07
2022-09-16T00:35:07.008Z,1.10
2022-09-16T00:37:34.623Z,1.40
2022-09-16T00:40:02.456Z,1.27
2022-09-16T00:42:31.366Z,0.70
2022-09-16T00:45:02.086Z,1.00
2022-09-16T00:47:32.870Z,1.17
2022-09-16T00:50:05.198Z,0.90
2022-09-16T00:52:33.884Z,0.97
2022-09-16T00:55:03.946Z,1.17
2022-09-16T00:57:32.962Z,0.90
2022-09-16T01:00:01.111Z,1.50
2022-09-16T01:02:29.282Z,1.10
2022-09-16T01:05:01.158Z,1.00
2022-09-16T01:07:32.564Z,1.00
2022-09-16T01:10:00.119Z,0.90
2022-09-16T01:12:29.297Z,1.10
2022-09-16T01:14:59.152Z,0.97
2022-09-16T01:17:34.626Z,1.20
2022-09-16T01:20:17.592Z,0.80
2022-09-16T01:22:56.470Z,0.93
2022-09-16T01:25:35.491Z,0.90
2022-09-16T01:28:18.164Z,1.40
2022-09-16T01:31:03.441Z,1.10
2022-09-16T01:33:38.085Z,1.17
2022-09-16T01:36:16.213Z,1.20
2022-09-16T01:38:57.040Z,1.13
2022-09-16T01:41:29.059Z,1.00
2022-09-16T01:44:00.597Z,1.00
2022-09-16T01:46:36.503Z,1.30
2022-09-16T01:49:10.664Z,1.50
2022-09-16T01:51:42.860Z,1.20
2022-09-16T01:54:13.533Z,1.23
2022-09-16T01:56:44.530Z,1.10
2022-09-16T01:59:15.131Z,1.57
2022-09-16T02:01:47.782Z,1.37
2022-09-16T02:04:19.238Z,2.47
2022-09-16T02:06:47.629Z,1.37
2022-09-16T02:09:18.123Z,1.40
2022-09-16T02:11:48.601Z,1.33
2022-09-16T02:14:19.224Z,1.30
2022-09-16T02:16:51.518Z,1.30
2022-09-16T02:19:22.298Z,1.30
2022-09-16T02:21:51.143Z,1.83
2022-09-16T02:24:20.450Z,1.67
2022-09-16T02:26:51.698Z,1.60
2022-09-16T02:29:22.979Z,1.23
2022-09-16T02:31:55.706Z,1.40
2022-09-16T02:34:27.642Z,1.27
2022-09-16T02:36:57.642Z,1.40
2022-09-16T02:39:29.965Z,1.47
2022-09-16T02:41:57.938Z,1.80
2022-09-16T02:44:26.009Z,1.07
2022-09-16T02:47:00.261Z,1.10
2022-09-16T02:49:30.855Z,1.50
2022-09-16T02:52:00.916Z,1.20
2022-09-16T02:54:35.702Z,1.60
2022-09-16T02:57:04.239Z,1.80
2022-09-16T02:59:32.294Z,1.33
2022-09-16T03:02:01.827Z,1.40
2022-09-16T03:04:30.328Z,1.23
2022-09-16T03:06:58.106Z,1.60
2022-09-16T03:09:25.957Z,2.10
2022-09-16T03:12:16.186Z,1.70
2022-09-16T03:15:06.813Z,1.47
2022-09-16T03:17:52.428Z,1.80
2022-09-16T03:20:26.379Z,2.00
2022-09-16T03:23:05.185Z,1.80
2022-09-16T03:25:39.653Z,1.70
2022-09-16T03:28:11.031Z,1.63
2022-09-16T03:30:43.595Z,1.20
2022-09-16T03:33:19.783Z,1.70
2022-09-16T03:35:48.933Z,1.37
2022-09-16T03:38:18.249Z,1.60
2022-09-16T03:40:47.145Z,1.73
2022-09-16T03:43:16.723Z,1.70
2022-09-16T03:45:45.021Z,1.67
2022-09-16T03:48:14.795Z,1.60
2022-09-16T03:50:42.425Z,2.10
2022-09-16T03:53:10.021Z,2.20
2022-09-16T03:55:37.590Z,1.87
2022-09-16T03:58:05.369Z,1.80
2022-09-16T04:00:33.043Z,1.83
2022-09-16T04:03:01.124Z,2.50
2022-09-16T04:05:30.090Z,1.90
2022-09-16T04:07:57.937Z,1.70
2022-09-16T04:10:25.561Z,2.30
2022-09-16T04:12:57.793Z,2.07
2022-09-16T04:15:25.334Z,1.87
2022-09-16T04:17:53.129Z,1.90
2022-09-16T04:20:20.689Z,1.60
2022-09-16T04:22:49.637Z,1.73
2022-09-16T04:25:17.484Z,1.73
2022-09-16T04:27:45.282Z,1.77
2022-09-16T04:30:14.343Z,2.40
2022-09-16T04:32:42.172Z,1.87
2022-09-16T04:35:10.540Z,1.97
2022-09-16T04:37:38.130Z,2.10
2022-09-16T04:40:07.898Z,2.23
2022-09-16T04:42:35.484Z,1.97
2022-09-16T04:45:03.198Z,2.60
2022-09-16T04:47:30.911Z,2.67
2022-09-16T04:49:59.037Z,2.40
2022-09-16T04:52:26.606Z,2.83
2022-09-16T04:54:54.143Z,2.73
2022-09-16T04:57:23.383Z,2.57
2022-09-16T04:59:50.922Z,3.13
2022-09-16T05:02:18.526Z,2.83
2022-09-16T05:04:46.037Z,2.83
2022-09-16T05:07:13.563Z,2.93
2022-09-16T05:09:41.157Z,2.70
2022-09-16T05:12:09.351Z,3.00
2022-09-16T05:14:38.291Z,3.10
2022-09-16T05:17:05.860Z,3.50
2022-09-16T05:19:33.388Z,2.83
2022-09-16T05:22:02.847Z,2.80
2022-09-16T05:24:32.499Z,2.80
2022-09-16T05:27:00.233Z,3.20
2022-09-16T05:29:28.273Z,3.20
2022-09-16T05:31:57.958Z,2.87
2022-09-16T05:34:28.576Z,2.60
2022-09-16T05:36:56.619Z,2.47
2022-09-16T05:39:26.196Z,2.83
2022-09-16T05:41:57.058Z,2.57
2022-09-16T05:44:25.150Z,2.23
2022-09-16T05:46:53.657Z,2.63
2022-09-16T05:49:23.706Z,2.20
2022-09-16T05:51:51.845Z,2.73
2022-09-16T05:54:21.494Z,2.83
2022-09-16T05:56:49.202Z,2.30
2022-09-16T05:59:17.563Z,2.70
2022-09-16T06:01:45.832Z,2.20
2022-09-16T06:04:15.211Z,2.17
2022-09-16T06:06:44.930Z,2.10
2022-09-16T06:09:15.290Z,2.80
2022-09-16T06:11:44.500Z,2.37
2022-09-16T06:14:13.163Z,2.10
2022-09-16T06:16:41.050Z,2.20
2022-09-16T06:19:12.968Z,2.27
2022-09-16T06:21:41.045Z,2.70
2022-09-16T06:24:10.273Z,1.83
2022-09-16T06:26:39.179Z,1.87
2022-09-16T06:29:06.841Z,1.80
2022-09-16T06:31:36.067Z,2.30
2022-09-16T06:34:03.672Z,2.27
2022-09-16T06:36:33.135Z,2.13
2022-09-16T06:39:00.649Z,2.07
2022-09-16T06:41:29.925Z,2.57
2022-09-16T06:43:57.476Z,1.90
2022-09-16T06:46:26.754Z,2.13
2022-09-16T06:48:58.659Z,2.00
2022-09-16T06:51:31.775Z,2.30
2022-09-16T06:54:01.455Z,2.20
2022-09-16T06:56:31.283Z,2.13
2022-09-16T06:59:00.442Z,2.00
2022-09-16T07:01:29.687Z,2.03
2022-09-16T07:03:58.562Z,2.00
2022-09-16T07:09:17.394Z,1.90
2022-09-16T07:11:46.310Z,2.20
2022-09-16T07:14:13.828Z,1.93
2022-09-16T07:16:41.897Z,1.77
2022-09-16T07:19:09.946Z,2.00
2022-09-16T07:21:37.506Z,1.90
2022-09-16T07:24:05.205Z,2.40
2022-09-16T07:26:34.807Z,2.10
2022-09-16T07:29:05.549Z,1.87
2022-09-16T07:31:34.670Z,1.80
2022-09-16T07:34:04.598Z,1.80
2022-09-16T07:36:35.060Z,1.97
2022-09-16T07:39:03.091Z,2.67
2022-09-16T07:41:31.887Z,1.90
2022-09-16T07:44:00.955Z,1.80
2022-09-16T07:46:31.143Z,2.20
2022-09-16T07:49:00.367Z,1.77
2022-09-16T07:51:28.887Z,1.60
2022-09-16T07:53:59.220Z,1.90
2022-09-16T07:56:29.109Z,2.00
2022-09-16T07:58:57.748Z,2.10
2022-09-16T08:01:25.948Z,1.83
2022-09-16T08:03:56.653Z,1.80
2022-09-16T08:06:25.819Z,1.57
2022-09-16T08:08:54.355Z,1.73
2022-09-16T08:11:23.003Z,1.80
2022-09-16T08:13:51.922Z,1.70
2022-09-16T08:16:21.207Z,1.70
2022-09-16T08:18:52.527Z,1.63
2022-09-16T08:21:23.526Z,1.73
2022-09-16T08:23:51.504Z,1.80
2022-09-16T08:26:20.473Z,1.50
2022-09-16T08:31:37.344Z,1.17
2022-09-16T08:34:04.989Z,1.03
2022-09-16T08:36:34.406Z,1.30
2022-09-16T08:39:02.576Z,1.50
2022-09-16T08:41:39.477Z,1.30
2022-09-16T08:44:15.530Z,1.10
2022-09-16T08:46:50.027Z,1.20
2022-09-16T08:49:22.530Z,1.30
2022-09-16T08:51:51.552Z,1.30
2022-09-16T08:54:27.792Z,0.97
2022-09-16T08:56:56.710Z,1.13
2022-09-16T08:59:26.964Z,0.93
2022-09-16T09:02:06.633Z,1.23
2022-09-16T09:04:36.553Z,1.20
2022-09-16T09:07:10.843Z,0.90
2022-09-16T09:09:53.213Z,1.07
2022-09-16T09:12:27.416Z,1.00
2022-09-16T09:15:05.199Z,0.90
2022-09-16T09:17:47.994Z,1.10
2022-09-16T09:20:23.654Z,1.00
2022-09-16T09:23:06.721Z,0.87
2022-09-16T09:25:41.280Z,1.00
2022-09-16T09:28:33.110Z,1.00
2022-09-16T09:31:10.729Z,1.00
2022-09-16T09:33:47.520Z,1.67
2022-09-16T09:36:25.733Z,1.07
2022-09-16T09:39:20.592Z,1.07
2022-09-16T09:41:51.986Z,0.80
2022-09-16T09:44:31.189Z,0.80
2022-09-16T09:47:02.247Z,0.90
2022-09-16T09:49:33.996Z,0.93
2022-09-16T09:52:04.019Z,1.13
2022-09-16T09:54:35.803Z,1.13
2022-09-16T09:57:05.941Z,1.10
2022-09-16T09:59:37.886Z,1.30
2022-09-16T10:02:15.022Z,0.90
2022-09-16T10:04:42.709Z,1.03
2022-09-16T10:07:11.258Z,1.30
2022-09-16T10:09:49.460Z,0.67
2022-09-16T10:12:27.755Z,1.03
2022-09-16T10:14:55.898Z,1.33
2022-09-16T10:17:23.694Z,0.70
2022-09-16T10:19:53.449Z,0.73
2022-09-16T10:22:23.386Z,1.20
2022-09-16T10:24:56.561Z,0.97
2022-09-16T10:27:27.088Z,1.00
2022-09-16T10:30:06.016Z,0.90
2022-09-16T10:32:34.974Z,1.10
2022-09-16T10:35:07.758Z,0.90
2022-09-16T10:37:35.366Z,1.27
2022-09-16T10:40:06.914Z,1.40
2022-09-16T10:42:34.564Z,1.23
2022-09-16T10:45:05.282Z,1.00
2022-09-16T10:47:36.254Z,0.80
2022-09-16T10:50:06.577Z,1.10
2022-09-16T10:52:42.788Z,1.03
2022-09-16T10:55:23.275Z,1.10
2022-09-16T10:57:51.249Z,0.97
2022-09-16T11:00:21.151Z,1.27
2022-09-16T11:03:24.779Z,1.07
2022-09-16T11:06:00.185Z,1.10
2022-09-16T11:08:40.416Z,1.23
2022-09-16T11:14:12.611Z,1.23
2022-09-16T11:16:53.847Z,1.03
2022-09-16T11:19:27.580Z,1.20
2022-09-16T11:22:06.131Z,1.30
2022-09-16T11:24:47.046Z,1.10
2022-09-16T11:27:22.941Z,1.00
2022-09-16T11:30:00.319Z,1.20
2022-09-16T11:32:36.298Z,0.80
2022-09-16T11:35:18.391Z,1.13
2022-09-16T11:37:50.943Z,0.67
2022-09-16T11:40:26.742Z,0.87
2022-09-16T11:43:00.205Z,0.90
2022-09-16T11:45:42.119Z,0.90
2022-09-16T11:48:38.641Z,0.80
2022-09-16T11:51:15.609Z,1.03
2022-09-16T11:53:55.671Z,1.00
2022-09-16T11:56:32.675Z,0.77
2022-09-16T11:59:07.264Z,1.00
2022-09-16T12:01:38.634Z,0.60
2022-09-16T12:04:10.457Z,0.73
2022-09-16T12:06:43.142Z,0.60
2022-09-16T12:09:14.280Z,0.50
2022-09-16T12:11:45.749Z,0.77
2022-09-16T12:14:18.111Z,0.80
2022-09-16T12:16:49.404Z,0.63
2022-09-16T12:19:21.020Z,0.80
2022-09-16T12:21:57.406Z,0.50
2022-09-16T12:24:31.974Z,0.50
2022-09-16T12:27:07.147Z,0.70
2022-09-16T12:29:42.590Z,0.87
2022-09-16T12:32:14.218Z,0.80
2022-09-16T12:34:44.458Z,0.83
2022-09-16T12:37:24.633Z,0.57
2022-09-16T12:39:53.286Z,0.87
2022-09-16T12:42:53.241Z,0.80
2022-09-16T12:45:38.464Z,0.80
2022-09-16T12:48:25.826Z,0.87
2022-09-16T12:51:16.671Z,0.63
2022-09-16T12:53:55.731Z,0.60
2022-09-16T12:56:39.723Z,0.50
2022-09-16T12:59:33.164Z,0.50
2022-09-16T13:02:06.410Z,0.80
2022-09-16T13:04:38.848Z,0.53
2022-09-16T13:07:07.077Z,0.60
2022-09-16T13:09:38.768Z,0.57
2022-09-16T13:15:08.045Z,0.37
2022-09-16T13:17:38.718Z,1.27
2022-09-16T13:20:09.145Z,0.50
2022-09-16T13:22:47.522Z,0.60
2022-09-16T13:25:22.398Z,0.60
2022-09-16T13:28:01.605Z,0.70
2022-09-16T13:30:35.710Z,0.90
2022-09-16T13:33:28.049Z,0.87
2022-09-16T13:36:31.338Z,0.83
2022-09-16T13:39:00.126Z,0.70
2022-09-16T13:41:35.773Z,0.60
2022-09-16T13:44:05.041Z,0.80
2022-09-16T13:46:35.613Z,0.70
2022-09-16T13:49:19.658Z,0.80
2022-09-16T13:51:48.410Z,0.73
2022-09-16T13:54:28.207Z,1.00
2022-09-16T13:57:15.167Z,0.70
2022-09-16T13:59:56.500Z,0.83
2022-09-16T14:02:33.467Z,0.80
2022-09-16T14:05:19.193Z,0.90
2022-09-16T14:07:51.779Z,0.80
2022-09-16T14:10:24.638Z,0.90
2022-09-16T14:12:58.691Z,0.60
2022-09-16T14:15:27.025Z,0.57
2022-09-16T14:17:59.329Z,0.70
2022-09-16T14:20:28.676Z,0.70
2022-09-16T14:23:04.535Z,0.53
2022-09-16T14:25:34.687Z,0.60
2022-09-16T14:28:18.234Z,0.40
2022-09-16T14:30:47.889Z,0.60
2022-09-16T14:33:15.928Z,0.50
2022-09-16T14:35:47.154Z,0.80
2022-09-16T14:41:06.871Z,0.67
2022-09-16T14:43:36.148Z,0.50
2022-09-16T14:46:03.664Z,0.60
2022-09-16T14:48:34.525Z,0.50
2022-09-16T14:51:04.790Z,0.80
2022-09-16T14:53:38.386Z,0.67
2022-09-16T14:56:07.530Z,0.53
2022-09-16T14:58:35.875Z,0.67
2022-09-16T15:01:09.053Z,0.67
2022-09-16T15:03:48.547Z,0.80
2022-09-16T15:06:19.662Z,0.70
2022-09-16T15:08:50.587Z,0.40
2022-09-16T15:11:43.697Z,0.97
2022-09-16T15:14:09.141Z,1.00
2022-09-16T15:16:42.377Z,0.70
2022-09-16T15:19:21.721Z,0.73
2022-09-16T15:21:52.196Z,0.90
2022-09-16T15:24:23.091Z,1.03
2022-09-16T15:26:50.852Z,1.00
2022-09-16T15:29:29.682Z,0.70
2022-09-16T15:32:07.630Z,0.73
2022-09-16T15:34:37.011Z,0.80
2022-09-16T15:37:05.918Z,0.97
2022-09-16T15:39:34.692Z,0.70
2022-09-16T15:42:11.897Z,0.87
2022-09-16T15:44:45.240Z,0.50
2022-09-16T15:47:19.371Z,1.00
2022-09-16T15:49:47.374Z,1.10
2022-09-16T15:52:16.523Z,1.23
2022-09-16T15:54:48.874Z,1.20
2022-09-16T15:57:22.347Z,0.97
2022-09-16T16:00:06.730Z,1.00
2022-09-16T16:02:40.262Z,1.23
2022-09-16T16:05:09.130Z,1.10
2022-09-16T16:07:43.212Z,0.97
2022-09-16T16:10:20.278Z,1.00
2022-09-16T16:12:49.224Z,1.10
2022-09-16T16:15:18.508Z,0.93
2022-09-16T16:17:47.238Z,1.20
2022-09-16T16:20:15.853Z,1.00
2022-09-16T16:22:45.344Z,1.10
2022-09-16T16:25:13.909Z,1.10
2022-09-16T16:27:41.673Z,1.20
2022-09-16T16:30:10.574Z,0.93
2022-09-16T16:32:39.167Z,1.10
2022-09-16T16:35:07.607Z,1.30
2022-09-16T16:37:45.828Z,1.23
2022-09-16T16:40:15.766Z,1.00
2022-09-16T16:42:44.221Z,1.03
2022-09-16T16:45:12.402Z,1.20
2022-09-16T16:47:40.460Z,0.90
2022-09-16T16:50:08.494Z,1.20
2022-09-16T16:52:36.047Z,0.90
2022-09-16T16:55:03.646Z,0.80
2022-09-16T16:57:32.694Z,0.77
2022-09-16T17:00:00.228Z,1.30
2022-09-16T17:02:27.990Z,1.10
2022-09-16T17:04:55.736Z,0.87
2022-09-16T17:07:26.672Z,0.93
2022-09-16T17:09:55.909Z,0.90
2022-09-16T17:12:23.654Z,1.00
2022-09-16T17:14:52.679Z,1.20
2022-09-16T17:17:20.343Z,1.00
2022-09-16T17:19:47.899Z,1.03
2022-09-16T17:22:15.906Z,1.47
2022-09-16T17:24:43.463Z,1.20
2022-09-16T17:27:11.591Z,1.60
2022-09-16T17:29:39.147Z,1.10
2022-09-16T17:32:08.206Z,1.40
2022-09-16T17:34:35.839Z,1.33
2022-09-16T17:37:04.199Z,1.40
2022-09-16T17:39:31.755Z,1.07
2022-09-16T17:42:00.018Z,1.40
2022-09-16T17:44:27.931Z,1.10
2022-09-16T17:46:56.214Z,1.43
2022-09-16T17:49:25.568Z,1.27
2022-09-16T17:51:54.061Z,1.20
2022-09-16T17:54:22.000Z,1.30
2022-09-16T17:56:49.640Z,1.20
2022-09-16T17:59:18.680Z,1.17
2022-09-16T18:01:46.947Z,1.60
2022-09-16T18:04:14.540Z,1.57
2022-09-16T18:06:44.803Z,1.40
2022-09-16T18:09:13.679Z,1.30
2022-09-16T18:11:42.394Z,1.10
2022-09-16T18:14:12.836Z,1.10
2022-09-16T18:16:41.040Z,1.13
2022-09-16T18:19:09.174Z,1.10
2022-09-16T18:21:37.991Z,1.33
2022-09-16T18:24:10.989Z,1.00
2022-09-16T18:26:38.945Z,1.20
2022-09-16T18:29:11.235Z,1.37
2022-09-16T18:31:40.011Z,0.97
2022-09-16T18:34:07.632Z,1.10
2022-09-16T18:36:36.806Z,1.20
2022-09-16T18:39:06.344Z,1.37
2022-09-16T18:41:38.696Z,1.03
2022-09-16T18:44:08.650Z,1.10
2022-09-16T18:46:37.538Z,1.20
2022-09-16T18:49:06.072Z,1.07
2022-09-16T18:51:35.349Z,1.17
2022-09-16T18:54:04.665Z,1.40
2022-09-16T18:56:34.823Z,0.73
2022-09-16T18:59:24.213Z,1.07
2022-09-16T19:01:53.832Z,1.43
2022-09-16T19:04:23.140Z,1.10
2022-09-16T19:06:53.266Z,1.50
2022-09-16T19:09:25.833Z,1.10
2022-09-16T19:11:54.258Z,1.17
2022-09-16T19:14:24.745Z,1.03
2022-09-16T19:16:53.215Z,1.20
2022-09-16T19:19:21.379Z,1.50
2022-09-16T19:21:49.354Z,1.30
2022-09-16T19:24:18.714Z,1.93
2022-09-16T19:26:47.398Z,1.50
2022-09-16T19:29:16.007Z,1.40
2022-09-16T19:31:46.305Z,1.87
2022-09-16T19:34:15.151Z,1.17
2022-09-16T19:36:43.367Z,2.00
2022-09-16T19:39:11.898Z,1.20
2022-09-16T19:41:40.856Z,1.80
2022-09-16T19:44:11.224Z,1.33
2022-09-16T19:46:40.270Z,1.30
2022-09-16T19:49:10.921Z,1.30
2022-09-16T19:51:38.808Z,1.80
2022-09-16T19:54:06.822Z,1.27
2022-09-16T19:56:34.772Z,1.57
2022-09-16T19:59:02.963Z,1.00
2022-09-16T20:01:33.002Z,1.37
2022-09-16T20:04:01.128Z,1.10
2022-09-16T20:06:34.803Z,1.10
2022-09-16T20:09:06.274Z,1.20
2022-09-16T20:11:36.328Z,1.60
2022-09-16T20:14:05.517Z,1.37
2022-09-16T20:16:35.584Z,1.33
2022-09-16T20:19:04.265Z,1.30
2022-09-16T20:21:34.994Z,1.47
2022-09-16T20:24:05.457Z,1.40
2022-09-16T20:26:33.632Z,1.50
2022-09-16T20:29:01.609Z,1.13
2022-09-16T20:31:30.962Z,1.30
2022-09-16T20:33:58.929Z,1.50
2022-09-16T20:36:27.647Z,1.00
2022-09-16T20:38:56.929Z,1.30
2022-09-16T20:41:26.054Z,1.30
2022-09-16T20:43:54.341Z,1.77
2022-09-16T20:46:23.534Z,1.60
2022-09-16T20:48:53.028Z,1.23
2022-09-16T20:51:21.805Z,1.30
2022-09-16T20:53:53.150Z,1.40
2022-09-16T20:56:23.010Z,1.43
2022-09-16T20:58:50.888Z,2.03
2022-09-16T21:01:20.641Z,1.40
2022-09-16T21:03:52.315Z,2.90
2022-09-16T21:06:20.235Z,1.40
2022-09-16T21:08:47.863Z,1.43
2022-09-16T21:11:16.946Z,1.10
2022-09-16T21:13:47.384Z,1.30
2022-09-16T21:16:16.511Z,1.40
2022-09-16T21:18:44.126Z,1.37
2022-09-16T21:21:14.863Z,1.40
2022-09-16T21:23:42.741Z,2.40
2022-09-16T21:26:13.310Z,1.20
2022-09-16T21:28:41.171Z,1.37
2022-09-16T21:31:12.019Z,1.50
2022-09-16T21:33:41.157Z,1.47
2022-09-16T21:36:11.404Z,1.63
2022-09-16T21:38:39.254Z,1.90
2022-09-16T21:41:08.880Z,1.67
2022-09-16T21:43:40.556Z,1.83
2022-09-16T21:46:12.929Z,1.60
2022-09-16T21:48:42.410Z,1.83
2022-09-16T21:51:13.082Z,1.60
2022-09-16T21:53:42.786Z,1.70
2022-09-16T21:56:13.363Z,1.40
2022-09-16T21:58:41.274Z,1.87
2022-09-16T22:01:11.462Z,1.30
2022-09-16T22:03:39.644Z,2.07
2022-09-16T22:06:08.861Z,1.30
2022-09-16T22:08:36.777Z,1.50
2022-09-16T22:11:05.927Z,1.90
2022-09-16T22:13:34.517Z,1.40
2022-09-16T22:16:02.703Z,1.50
2022-09-16T22:18:32.931Z,1.73
2022-09-16T22:21:03.392Z,1.90
2022-09-16T22:23:31.243Z,1.47
2022-09-16T22:25:58.766Z,1.43
2022-09-16T22:28:26.269Z,1.47
2022-09-16T22:30:53.962Z,2.33
2022-09-16T22:33:21.723Z,1.80
2022-09-16T22:35:50.880Z,1.50
2022-09-16T22:38:18.851Z,2.30
2022-09-16T22:40:46.380Z,1.90
2022-09-16T22:43:14.048Z,2.13
2022-09-16T22:45:41.666Z,1.70
2022-09-16T22:48:09.221Z,1.60
2022-09-16T22:50:36.996Z,1.50
2022-09-16T22:53:06.200Z,1.73
2022-09-16T22:55:33.749Z,1.50
2022-09-16T22:58:01.233Z,1.47
2022-09-16T23:00:28.777Z,1.57
2022-09-16T23:02:56.325Z,1.80
2022-09-16T23:05:24.059Z,2.10
2022-09-16T23:07:51.626Z,2.03
2022-09-16T23:10:20.766Z,2.00
2022-09-16T23:12:48.309Z,1.80
2022-09-16T23:15:16.118Z,1.47
2022-09-16T23:17:43.708Z,1.97
2022-09-16T23:20:11.293Z,1.60
2022-09-16T23:22:40.690Z,1.40
2022-09-16T23:25:09.182Z,1.60
2022-09-16T23:27:39.169Z,1.77
2022-09-16T23:30:08.243Z,1.83
2022-09-16T23:32:35.763Z,2.13
2022-09-16T23:35:03.968Z,1.73
2022-09-16T23:37:32.126Z,1.77
2022-09-16T23:40:00.561Z,1.50
2022-09-16T23:42:28.141Z,1.40
2022-09-16T23:44:58.289Z,1.87
2022-09-16T23:47:25.818Z,1.63
2022-09-16T23:49:53.397Z,1.43
2022-09-16T23:52:20.937Z,1.30
2022-09-16T23:54:48.433Z,1.60
2022-09-16T23:57:15.972Z,1.87
2022-09-16T23:59:43.588Z,1.70
